Golden Lake, Canada
Current Conditions -  °F | °C
As of 12:00 PM on Thursday 23 Oct 2014 (Local Time) from CYWA Reporting Station
Clear Clear  
Wind Chill: 52°   Ceiling: Unl
Heat Index: 52°   Visibility: 9mi
Dew Point: 34°   Wind: 8mph
Humidity: 50%   Direction: 350°N
Pressure: 30.15"   Gusts: NA
Location:  45.58°N, 77.25°W
Report Text: CYWA 231600Z AUTO 35007KT 300V010 9SM CLR 11/01 A3015 RMK PCPN0.5MM PAST HR SLP216
Loading
Personal Weather Stations






























Interactive Weather Map
Tropical Storm Tracking
New forecast layout! Learn more

10-Day Weather Forecast

Advertisements
Track Severe Weather on mobile